ENAR weather

Arendal Heliport, Hospital
Arendal, Aust-Agder, Norway

Public forecast

Using degrees Celsius for public forecast. Weather courtesy of forecast.io.

METAR (pilot weather report)

Closest report is Kristiansand Airport, 26.3 nm (48.8 km) SW. Retrieved 2019/05/26 05:20 UTC (0 seconds ago):

ENCN 260520Z 27007KT 230V320 9999 FEW028 10/04 Q1002

TAF (pilot weather forecast)

Forecast is more than 12 hours old.

Closest forecast is Kristiansand Airport, 26.3 nm (48.8 km) SW. Retrieved 2016/05/06 12:39 UTC (3 years ago):

TAF TAF ENCN 061100Z 0612/0712 14008KT 9999 FEW040